Time;durP1;ratioP1;P1;durP2;ratioP2;P2;SDS_P1;SDS_P2;PMS_P1;PMS_P2;Temp;Humidity;BMP_temperature;BMP_pressure;BME280_temperature;BME280_humidity;BME280_pressure;Samples;Min_cycle;Max_cycle;Signal;HPM_P1;HPM_P2
2023/11/18 00:00:23;;;;;;;1999.90;999.90;;;;;;;8.40;92.06;95392.06;5135397;27;20054;-62
2023/11/18 00:02:50;;;;;;;1999.90;999.90;;;;;;;8.38;91.84;95393.06;5135213;27;20039;-65
2023/11/18 00:05:23;;;;;;;1999.90;999.90;;;;;;;8.34;92.06;95395.81;5135560;27;20790;-65
2023/11/18 00:07:52;;;;;;;1999.90;999.90;;;;;;;8.31;92.56;95385.53;5135352;27;20049;-64
2023/11/18 00:10:20;;;;;;;1999.90;999.90;;;;;;;8.30;92.35;95376.03;5135030;27;20047;-64
2023/11/18 00:12:47;;;;;;;1999.90;999.90;;;;;;;8.36;91.82;95376.69;5135249;27;20078;-63
2023/11/18 00:15:16;;;;;;;1999.90;999.90;;;;;;;8.40;91.38;95376.44;5135150;27;20077;-64
2023/11/18 00:17:44;;;;;;;1999.90;999.90;;;;;;;8.42;91.31;95379.81;5135107;27;20555;-62
2023/11/18 00:20:13;;;;;;;1999.90;999.90;;;;;;;8.42;91.47;95378.97;5134879;27;20112;-64
2023/11/18 00:22:43;;;;;;;1999.90;999.90;;;;;;;8.44;90.97;95377.13;5134944;27;20058;-62
2023/11/18 00:25:11;;;;;;;1999.90;999.90;;;;;;;8.41;89.85;95393.78;5134764;27;20449;-63
2023/11/18 00:27:38;;;;;;;1999.90;999.90;;;;;;;8.38;88.92;95383.50;5134864;27;20047;-62
2023/11/18 00:30:08;;;;;;;1999.90;999.90;;;;;;;8.42;87.95;95392.00;5134703;27;20055;-65
2023/11/18 00:32:36;;;;;;;1999.90;999.90;;;;;;;8.35;86.43;95391.47;5134752;27;20047;-63
2023/11/18 00:35:04;;;;;;;1999.90;999.90;;;;;;;8.34;86.83;95398.41;5134734;27;20054;-64
2023/11/18 00:37:31;;;;;;;1999.90;999.90;;;;;;;8.32;85.67;95400.28;5134659;27;20118;-63
2023/11/18 00:40:00;;;;;;;1999.90;999.90;;;;;;;8.28;84.75;95388.28;5134687;27;20067;-65
2023/11/18 00:42:28;;;;;;;1999.90;999.90;;;;;;;8.24;84.61;95399.78;5134447;27;20480;-64
2023/11/18 00:44:56;;;;;;;1999.90;999.90;;;;;;;8.21;83.19;95421.59;5134459;27;20390;-64
2023/11/18 00:47:23;;;;;;;1999.90;999.90;;;;;;;8.16;80.83;95425.34;5134529;27;20050;-64
2023/11/18 00:49:52;;;;;;;1999.90;999.90;;;;;;;8.10;80.21;95410.84;5134279;27;20057;-65
2023/11/18 00:52:20;;;;;;;1999.90;999.90;;;;;;;8.02;79.49;95399.94;5134404;27;20497;-64
2023/11/18 00:54:47;;;;;;;1999.90;999.90;;;;;;;8.00;79.62;95393.97;5134302;27;20085;-64
2023/11/18 00:57:16;;;;;;;1999.90;999.90;;;;;;;7.98;79.55;95401.84;5134266;27;20043;-64
2023/11/18 00:59:44;;;;;;;1999.90;999.90;;;;;;;7.93;79.74;95406.41;5134302;27;20096;-65
2023/11/18 01:02:11;;;;;;;1999.90;999.90;;;;;;;7.95;79.21;95395.00;5134363;27;20324;-65
2023/11/18 01:04:38;;;;;;;1999.90;999.90;;;;;;;7.89;79.03;95387.47;5134295;27;20126;-64
2023/11/18 01:07:06;;;;;;;1999.90;999.90;;;;;;;7.85;79.63;95385.91;5134470;27;20186;-62
2023/11/18 01:09:38;;;;;;;1999.90;999.90;;;;;;;7.82;79.12;95389.50;5134150;27;20080;-63
2023/11/18 01:12:09;;;;;;;1999.90;999.90;;;;;;;7.85;78.40;95378.09;5134160;27;20096;-65
2023/11/18 01:14:39;;;;;;;1999.90;999.90;;;;;;;7.78;77.38;95368.88;5134249;27;20050;-64
2023/11/18 01:17:06;;;;;;;1999.90;999.90;;;;;;;7.74;75.51;95349.97;5134101;27;20256;-63
2023/11/18 01:19:33;;;;;;;1999.90;999.90;;;;;;;7.74;75.92;95341.31;5134195;27;20103;-63
2023/11/18 01:22:03;;;;;;;1999.90;999.90;;;;;;;7.67;74.29;95361.56;5134078;27;20454;-64
2023/11/18 01:24:29;;;;;;;1999.90;999.90;;;;;;;7.65;73.37;95350.38;5134399;27;20096;-63
2023/11/18 01:26:57;;;;;;;1999.90;999.90;;;;;;;7.67;71.85;95351.16;5134099;28;20142;-62
2023/11/18 01:29:24;;;;;;;1999.90;999.90;;;;;;;7.62;72.93;95335.75;5134010;28;20047;-63
2023/11/18 01:31:52;;;;;;;1999.90;999.90;;;;;;;7.67;73.24;95335.53;5134250;27;20047;-63
2023/11/18 01:34:21;;;;;;;1999.90;999.90;;;;;;;7.68;72.04;95329.44;5133942;28;20043;-63
2023/11/18 01:36:49;;;;;;;1999.90;999.90;;;;;;;7.68;72.16;95329.44;5133697;27;20086;-64
2023/11/18 01:39:17;;;;;;;1999.90;999.90;;;;;;;7.67;71.96;95312.09;5133801;27;20138;-64
2023/11/18 01:41:44;;;;;;;1999.90;999.90;;;;;;;7.62;72.08;95327.09;5133845;27;20122;-64
2023/11/18 01:44:13;;;;;;;1999.90;999.90;;;;;;;7.62;71.22;95334.91;5133883;28;20050;-63
2023/11/18 01:46:44;;;;;;;1999.90;999.90;;;;;;;7.66;71.10;95345.13;5134003;27;20047;-62
2023/11/18 01:49:14;;;;;;;1999.90;999.90;;;;;;;7.68;71.13;95363.28;5133663;28;20051;-64
2023/11/18 01:51:42;;;;;;;1999.90;999.90;;;;;;;7.64;72.38;95364.28;5133868;27;20040;-64
2023/11/18 01:54:15;;;;;;;1999.90;999.90;;;;;;;7.67;71.97;95364.16;5133764;27;20047;-63
2023/11/18 01:56:43;;;;;;;1999.90;999.90;;;;;;;7.66;71.67;95371.16;5137791;27;20135;-65
2023/11/18 01:59:17;;;;;;;1999.90;999.90;;;;;;;7.70;72.30;95366.63;5137786;27;20100;-65
2023/11/18 02:01:47;;;;;;;1999.90;999.90;;;;;;;7.71;71.17;95373.53;5137677;27;20136;-63
2023/11/18 02:04:19;;;;;;;1999.90;999.90;;;;;;;7.67;70.54;95366.75;5137705;27;20130;-63
2023/11/18 02:06:46;;;;;;;1999.90;999.90;;;;;;;7.66;72.28;95349.47;5137645;27;20044;-64
2023/11/18 02:09:13;;;;;;;1999.90;999.90;;;;;;;7.61;71.41;95354.88;5137792;27;20094;-63
2023/11/18 02:11:48;;;;;;;1999.90;999.90;;;;;;;7.59;71.55;95357.53;5137496;27;20099;-63
2023/11/18 02:14:17;;;;;;;1999.90;999.90;;;;;;;7.57;71.51;95368.94;5137380;27;20476;-63
2023/11/18 02:16:46;;;;;;;1999.90;999.90;;;;;;;7.54;72.90;95366.47;5137402;27;20044;-63
2023/11/18 02:19:21;;;;;;;1999.90;999.90;;;;;;;7.52;71.55;95363.94;5137428;27;20480;-64
2023/11/18 02:21:50;;;;;;;1999.90;999.90;;;;;;;7.46;71.94;95374.63;5137654;27;20415;-63
2023/11/18 02:24:30;;;;;;;1999.90;999.90;;;;;;;7.36;71.06;95358.59;5137388;27;20049;-64
2023/11/18 02:27:00;;;;;;;1999.90;999.90;;;;;;;7.40;71.14;95362.72;5137342;27;20055;-64
2023/11/18 02:29:30;;;;;;;1999.90;999.90;;;;;;;7.37;70.72;95364.66;5137064;27;20408;-65
2023/11/18 02:32:05;;;;;;;1999.90;999.90;;;;;;;7.32;71.59;95344.84;5137086;27;20040;-62
2023/11/18 02:34:36;;;;;;;1999.90;999.90;;;;;;;7.27;71.92;95323.41;5137346;27;20475;-64
2023/11/18 02:37:06;;;;;;;;;;;;;;;7.31;70.22;95326.72;5137524;27;20047;-62
2023/11/18 02:39:40;;;;;;;1999.90;999.90;;;;;;;7.24;70.98;95333.94;5136987;27;20533;-63
2023/11/18 02:42:12;;;;;;;1999.90;999.90;;;;;;;7.25;70.78;95332.22;5137011;27;20054;-63
2023/11/18 02:44:39;;;;;;;1999.90;999.90;;;;;;;7.18;71.28;95342.88;5136953;27;20484;-64
2023/11/18 02:47:07;;;;;;;1999.90;999.90;;;;;;;7.18;71.37;95335.06;5136921;27;20097;-64
2023/11/18 02:49:36;;;;;;;1999.90;999.90;;;;;;;7.24;70.91;95339.16;5136779;27;20043;-64
2023/11/18 02:52:04;;;;;;;1999.90;999.90;;;;;;;7.25;69.80;95340.00;5136734;27;20051;-63
2023/11/18 03:07:19;;;;;;;1999.90;999.90;;;;;;;8.00;68.69;95362.72;5131493;27;20383;-65
2023/11/18 03:09:46;;;;;;;1999.90;999.90;;;;;;;7.81;68.67;95373.97;5131309;28;20043;-66
2023/11/18 03:12:13;;;;;;;1999.90;999.90;;;;;;;7.57;70.53;95363.75;5131282;28;20126;-66
2023/11/18 03:14:41;;;;;;;1999.90;999.90;;;;;;;7.45;71.28;95349.53;5131236;28;20039;-66
2023/11/18 03:17:09;;;;;;;1999.90;999.90;;;;;;;7.38;72.94;95348.09;5131195;27;20047;-65
2023/11/18 03:19:36;;;;;;;1999.90;999.90;;;;;;;7.31;72.57;95337.97;5131163;27;20515;-64
2023/11/18 03:22:04;;;;;;;1999.90;999.90;;;;;;;7.09;71.28;95332.88;5131196;27;20092;-64
2023/11/18 03:24:33;;;;;;;1999.90;999.90;;;;;;;7.11;72.04;95336.25;5131001;28;20488;-67
2023/11/18 03:27:00;;;;;;;1999.90;999.90;;;;;;;7.00;72.69;95312.47;5131021;28;20043;-64
2023/11/18 03:29:29;;;;;;;1999.90;999.90;;;;;;;6.98;69.02;95335.09;5131003;28;20044;-65
2023/11/18 03:31:57;;;;;;;1999.90;999.90;;;;;;;6.94;70.38;95331.78;5130966;28;20083;-66
2023/11/18 03:34:24;;;;;;;1999.90;999.90;;;;;;;6.91;68.16;95317.16;5130867;28;20047;-65
2023/11/18 03:36:52;;;;;;;1999.90;999.90;;;;;;;6.88;68.53;95301.69;5130679;28;20055;-65
2023/11/18 03:39:19;;;;;;;1999.90;999.90;;;;;;;6.89;68.95;95312.94;5130910;28;20039;-62
2023/11/18 03:41:47;;;;;;;1999.90;999.90;;;;;;;6.80;67.90;95320.22;5130699;28;20058;-64
2023/11/18 03:44:14;;;;;;;1999.90;999.90;;;;;;;6.80;67.33;95321.94;5130641;28;20448;-66
2023/11/18 03:46:42;;;;;;;1999.90;999.90;;;;;;;6.78;67.41;95327.25;5130661;28;20047;-65
2023/11/18 03:49:09;;;;;;;1999.90;999.90;;;;;;;6.79;66.79;95334.13;5130565;27;20043;-66
2023/11/18 03:51:36;;;;;;;1999.90;999.90;;;;;;;6.77;66.05;95324.72;5130563;27;20126;-63
2023/11/18 03:54:04;;;;;;;1999.90;999.90;;;;;;;6.75;68.11;95318.72;5130479;28;20047;-65
2023/11/18 03:56:31;;;;;;;1999.90;999.90;;;;;;;6.74;66.67;95325.66;5130242;28;20082;-65
2023/11/18 03:58:59;;;;;;;1999.90;999.90;;;;;;;6.73;65.65;95304.94;5130318;27;20050;-65
2023/11/18 04:01:27;;;;;;;1999.90;999.90;;;;;;;6.68;66.53;95318.97;5130338;28;20043;-65
2023/11/18 04:03:54;;;;;;;1999.90;999.90;;;;;;;6.71;67.04;95307.59;5130532;28;20047;-64
2023/11/18 04:06:21;;;;;;;1999.90;999.90;;;;;;;6.68;67.20;95299.91;5127069;28;20072;-63
2023/11/18 04:08:49;;;;;;;1999.90;999.90;;;;;;;6.72;65.94;95311.03;5116386;28;20104;-64
2023/11/18 04:11:16;;;;;;;1999.90;999.90;;;;;;;6.72;66.00;95306.69;5116407;28;20134;-62
2023/11/18 04:13:44;;;;;;;1999.90;999.90;;;;;;;6.72;65.60;95316.25;5116283;28;20505;-64
2023/11/18 04:16:13;;;;;;;1999.90;999.90;;;;;;;6.75;65.42;95319.56;5116197;28;20058;-65
2023/11/18 04:18:41;;;;;;;1999.90;999.90;;;;;;;6.68;65.33;95323.31;5116264;28;20044;-63
2023/11/18 04:21:09;;;;;;;1999.90;999.90;;;;;;;6.69;64.87;95327.63;5116211;28;20043;-63
2023/11/18 04:23:37;;;;;;;1999.90;999.90;;;;;;;6.73;66.36;95334.38;5116246;28;20059;-66
2023/11/18 04:26:05;;;;;;;1999.90;999.90;;;;;;;6.73;66.21;95336.13;5116095;28;20113;-65
2023/11/18 04:28:32;;;;;;;1999.90;999.90;;;;;;;6.72;65.23;95322.31;5116045;28;20129;-67
2023/11/18 04:31:00;;;;;;;1999.90;999.90;;;;;;;6.73;65.67;95323.97;5116014;28;20496;-65
2023/11/18 04:33:29;;;;;;;1999.90;999.90;;;;;;;6.72;64.86;95332.69;5116206;28;20047;-64
2023/11/18 04:35:57;;;;;;;1999.90;999.90;;;;;;;6.77;66.79;95324.72;5115966;28;20477;-63
2023/11/18 04:38:25;;;;;;;1999.90;999.90;;;;;;;6.67;65.49;95327.69;5115792;28;20407;-63
2023/11/18 04:40:53;;;;;;;1999.90;999.90;;;;;;;6.73;65.50;95320.53;5115853;28;20382;-64
2023/11/18 04:43:22;;;;;;;1999.90;999.90;;;;;;;6.66;64.34;95322.56;5115947;28;20052;-66
2023/11/18 04:45:49;;;;;;;1999.90;999.90;;;;;;;6.68;65.35;95334.56;5115755;28;20493;-63
2023/11/18 04:48:16;;;;;;;1999.90;999.90;;;;;;;6.62;63.93;95326.19;5115594;28;20044;-62
2023/11/18 04:50:45;;;;;;;1999.90;999.90;;;;;;;6.60;64.43;95318.47;5115554;28;20389;-65
2023/11/18 04:53:12;;;;;;;1999.90;999.90;;;;;;;6.55;64.09;95336.84;5115709;28;20083;-64
2023/11/18 04:55:39;;;;;;;1999.90;999.90;;;;;;;6.54;63.94;95321.31;5115449;28;20143;-64
2023/11/18 04:58:06;;;;;;;1999.90;999.90;;;;;;;6.56;64.51;95325.53;5115579;28;20047;-62
2023/11/18 05:00:34;;;;;;;1999.90;999.90;;;;;;;6.51;64.64;95324.88;5115372;28;20093;-67
2023/11/18 05:03:01;;;;;;;1999.90;999.90;;;;;;;6.55;64.27;95317.78;5115503;28;20078;-65
2023/11/18 05:05:28;;;;;;;1999.90;999.90;;;;;;;6.54;64.78;95340.31;5115346;28;20047;-63
2023/11/18 05:07:57;;;;;;;1999.90;999.90;;;;;;;6.44;63.35;95363.25;5115400;28;20104;-65
2023/11/18 05:10:24;;;;;;;1999.90;999.90;;;;;;;6.36;63.26;95364.47;5115351;28;20060;-66
2023/11/18 05:12:55;;;;;;;1999.90;999.90;;;;;;;6.43;63.56;95360.72;5115217;28;20047;-63
2023/11/18 05:15:25;;;;;;;1999.90;999.90;;;;;;;6.41;64.53;95358.16;5115133;28;20082;-64
2023/11/18 05:17:52;;;;;;;1999.90;999.90;;;;;;;6.42;63.15;95364.22;5114778;28;20143;-64
2023/11/18 05:20:19;;;;;;;1999.90;999.90;;;;;;;6.39;63.06;95369.53;5114480;28;20048;-64
2023/11/18 05:22:46;;;;;;;1999.90;999.90;;;;;;;6.34;63.32;95371.47;5115070;28;20051;-63
2023/11/18 05:25:14;;;;;;;1999.90;999.90;;;;;;;6.30;62.96;95349.97;5115017;28;20134;-64
2023/11/18 05:27:43;;;;;;;1999.90;999.90;;;;;;;6.31;63.73;95349.06;5115057;28;20051;-67
2023/11/18 05:30:11;;;;;;;1999.90;999.90;;;;;;;6.38;62.61;95360.06;5114888;28;20043;-66
2023/11/18 05:32:39;;;;;;;1999.90;999.90;;;;;;;6.37;62.45;95355.75;5114844;28;20101;-63
2023/11/18 05:35:11;;;;;;;1999.90;999.90;;;;;;;6.37;62.60;95351.41;5114866;28;20389;-63
2023/11/18 05:37:40;;;;;;;1999.90;999.90;;;;;;;6.27;62.62;95363.06;5114673;28;20043;-65
2023/11/18 05:40:09;;;;;;;1999.90;999.90;;;;;;;6.20;62.42;95388.44;5114691;28;20039;-65
2023/11/18 05:42:41;;;;;;;1999.90;999.90;;;;;;;6.26;62.59;95390.78;5114717;28;20047;-64
2023/11/18 05:45:17;;;;;;;1999.90;999.90;;;;;;;6.26;62.55;95370.00;5114580;28;20408;-65
2023/11/18 05:47:44;;;;;;;1999.90;999.90;;;;;;;6.26;61.87;95348.41;5114635;28;20047;-62
2023/11/18 05:50:11;;;;;;;1999.90;999.90;;;;;;;6.17;62.45;95360.00;5114451;28;20051;-62
2023/11/18 05:52:38;;;;;;;1999.90;999.90;;;;;;;6.14;61.72;95355.75;5114543;28;20044;-64
2023/11/18 05:55:06;;;;;;;1999.90;999.90;;;;;;;6.05;62.17;95350.97;5114540;28;20054;-62
2023/11/18 05:57:33;;;;;;;1999.90;999.90;;;;;;;6.11;62.00;95345.50;5114327;28;20086;-64
2023/11/18 06:00:05;;;;;;;1999.90;999.90;;;;;;;6.16;61.82;95351.38;5114354;28;20061;-64
2023/11/18 06:02:33;;;;;;;1999.90;999.90;;;;;;;6.04;61.93;95357.03;5114361;28;20047;-65
2023/11/18 06:05:03;;;;;;;1999.90;999.90;;;;;;;5.94;62.84;95357.34;5114079;28;20096;-64
2023/11/18 06:07:31;;;;;;;1999.90;999.90;;;;;;;5.89;62.93;95367.06;5114185;28;20504;-61
2023/11/18 06:09:59;;;;;;;1999.90;999.90;;;;;;;5.93;62.55;95360.84;5114111;28;20416;-63
2023/11/18 06:12:26;;;;;;;1999.90;999.90;;;;;;;5.84;61.94;95368.16;5114184;28;20044;-62
2023/11/18 06:14:53;;;;;;;1999.90;999.90;;;;;;;5.84;62.10;95378.53;5114018;28;20083;-64
2023/11/18 06:17:22;;;;;;;1999.90;999.90;;;;;;;5.92;62.06;95366.09;5113940;28;20404;-64
2023/11/18 06:19:49;;;;;;;1999.90;999.90;;;;;;;5.84;61.09;95370.75;5113998;28;20062;-62
2023/11/18 06:22:19;;;;;;;1999.90;999.90;;;;;;;5.86;61.62;95364.59;5114017;28;20094;-62
2023/11/18 06:24:46;;;;;;;1999.90;999.90;;;;;;;5.92;61.69;95355.72;5113914;28;20039;-63
2023/11/18 06:27:15;;;;;;;1999.90;999.90;;;;;;;5.90;61.24;95353.19;5113893;28;20079;-65
2023/11/18 06:29:44;;;;;;;1999.90;999.90;;;;;;;5.92;61.74;95353.13;5113541;28;20065;-64
2023/11/18 06:32:12;;;;;;;1999.90;999.90;;;;;;;5.90;62.94;95348.00;5113678;28;20126;-65
2023/11/18 06:34:41;;;;;;;1999.90;999.90;;;;;;;5.87;61.89;95348.09;5113820;28;20464;-65
2023/11/18 06:37:08;;;;;;;1999.90;999.90;;;;;;;5.91;61.88;95347.09;5113709;28;20477;-62
2023/11/18 06:39:39;;;;;;;1999.90;999.90;;;;;;;5.96;61.63;95359.88;5113774;28;20122;-62
2023/11/18 06:42:11;;;;;;;1999.90;999.90;;;;;;;5.98;62.08;95358.09;5113537;28;20083;-62
2023/11/18 06:44:39;;;;;;;1999.90;999.90;;;;;;;6.02;61.90;95357.06;5113777;28;20496;-64
2023/11/18 06:47:07;;;;;;;1999.90;999.90;;;;;;;6.06;62.04;95348.25;5113629;28;20082;-63
2023/11/18 06:49:37;;;;;;;1999.90;999.90;;;;;;;6.07;60.60;95341.34;5113588;28;20400;-66
2023/11/18 06:52:06;;;;;;;1999.90;999.90;;;;;;;6.11;61.54;95348.09;5113594;28;20079;-62
2023/11/18 06:54:33;;;;;;;1999.90;999.90;;;;;;;6.17;60.88;95341.84;5113576;28;20044;-64
2023/11/18 06:57:01;;;;;;;1999.90;999.90;;;;;;;6.15;62.64;95348.84;5113413;28;20054;-62
2023/11/18 06:59:28;;;;;;;1999.90;999.90;;;;;;;6.19;61.40;95340.00;5113479;28;20054;-63
2023/11/18 07:01:56;;;;;;;1999.90;999.90;;;;;;;6.24;61.29;95352.81;5113541;28;20447;-61
2023/11/18 07:04:24;;;;;;;1999.90;999.90;;;;;;;6.27;60.61;95347.50;5112663;28;20511;-66
2023/11/18 07:06:50;;;;;;;1999.90;999.90;;;;;;;6.23;60.69;95345.94;5113213;28;20497;-66
2023/11/18 07:09:21;;;;;;;1999.90;999.90;;;;;;;6.21;60.91;95347.72;5113476;28;20048;-65
2023/11/18 07:11:51;;;;;;;1999.90;999.90;;;;;;;6.20;61.25;95354.66;5113324;28;20055;-62
2023/11/18 07:14:18;;;;;;;1999.90;999.90;;;;;;;6.26;60.84;95320.66;5113298;28;20052;-64
2023/11/18 07:16:46;;;;;;;1999.90;999.90;;;;;;;6.29;60.12;95299.78;5113292;28;20048;-62
2023/11/18 07:19:19;;;;;;;1999.90;999.90;;;;;;;6.39;60.07;95287.28;5113370;28;20050;-65
2023/11/18 07:21:47;;;;;;;1999.90;999.90;;;;;;;6.47;60.88;95299.91;5113337;28;20044;-63
2023/11/18 07:24:14;;;;;;;1999.90;999.90;;;;;;;6.44;61.52;95318.22;5113245;28;20405;-63
2023/11/18 07:26:44;;;;;;;1999.90;999.90;;;;;;;6.48;60.58;95319.81;5113059;28;20561;-65
2023/11/18 07:29:11;;;;;;;1999.90;999.90;;;;;;;6.46;59.84;95319.03;5113346;28;20043;-65
2023/11/18 07:31:39;;;;;;;1999.90;999.90;;;;;;;6.51;60.50;95319.69;5113242;28;20466;-64
2023/11/18 07:34:06;;;;;;;1999.90;999.90;;;;;;;6.51;58.90;95329.22;5113134;28;20051;-66
2023/11/18 07:36:35;;;;;;;1999.90;999.90;;;;;;;6.43;59.32;95320.00;5113124;28;20393;-65
2023/11/18 07:39:03;;;;;;;1999.90;999.90;;;;;;;6.42;59.47;95335.66;5113241;28;20047;-63
2023/11/18 07:41:32;;;;;;;1999.90;999.90;;;;;;;6.36;59.38;95344.53;5113385;28;20126;-63
2023/11/18 07:44:01;;;;;;;1999.90;999.90;;;;;;;6.39;58.66;95339.22;5116853;28;20051;-65
2023/11/18 07:46:30;;;;;;;1999.90;999.90;;;;;;;6.35;59.28;95342.00;5116987;28;20454;-65
2023/11/18 07:48:58;;;;;;;1999.90;999.90;;;;;;;6.37;59.54;95350.56;5116881;28;20044;-63
2023/11/18 07:51:27;;;;;;;1999.90;999.90;;;;;;;6.40;59.68;95347.84;5116856;28;20050;-62
2023/11/18 07:53:56;;;;;;;1999.90;999.90;;;;;;;6.44;58.59;95341.59;5116703;28;20152;-63
2023/11/18 07:56:28;;;;;;;1999.90;999.90;;;;;;;6.47;58.70;95338.06;5116559;28;20043;-64
2023/11/18 07:58:56;;;;;;;1999.90;999.90;;;;;;;6.52;57.32;95333.50;5116671;28;20040;-63
2023/11/18 08:01:30;;;;;;;1999.90;999.90;;;;;;;6.49;57.37;95328.44;5116643;28;20417;-63
2023/11/18 08:03:58;;;;;;;1999.90;999.90;;;;;;;6.47;57.41;95330.25;5116573;28;20101;-63
2023/11/18 08:06:26;;;;;;;1999.90;999.90;;;;;;;6.47;58.35;95331.09;5116185;28;20048;-65
2023/11/18 08:08:54;;;;;;;1999.90;999.90;;;;;;;6.56;57.83;95341.13;5116515;28;20040;-65
2023/11/18 08:11:23;;;;;;;1999.90;999.90;;;;;;;6.48;58.01;95330.22;5116487;28;20047;-61
2023/11/18 08:13:54;;;;;;;1999.90;999.90;;;;;;;6.41;57.44;95320.97;5116382;28;20130;-63
2023/11/18 08:16:22;;;;;;;1999.90;999.90;;;;;;;6.49;58.07;95320.63;5116515;28;20454;-67
2023/11/18 08:18:51;;;;;;;1999.90;999.90;;;;;;;6.49;58.12;95300.72;5116281;28;20096;-67
2023/11/18 08:21:20;;;;;;;1999.90;999.90;;;;;;;6.47;58.16;95306.88;5116265;28;20050;-66
2023/11/18 08:23:49;;;;;;;1999.90;999.90;;;;;;;6.51;57.91;95304.09;5116271;28;20046;-64
2023/11/18 08:26:18;;;;;;;1999.90;999.90;;;;;;;6.59;57.94;95308.94;5116106;28;20039;-64
2023/11/18 08:28:46;;;;;;;1999.90;999.90;;;;;;;6.70;57.41;95311.13;5116018;28;20485;-66
2023/11/18 08:31:17;;;;;;;1999.90;999.90;;;;;;;6.89;56.97;95308.56;5116119;28;20484;-64
2023/11/18 08:33:46;;;;;;;1999.90;999.90;;;;;;;7.06;55.83;95309.59;5115951;28;20054;-63
2023/11/18 08:36:17;;;;;;;1999.90;999.90;;;;;;;7.10;54.41;95329.34;5115860;28;20056;-64
2023/11/18 08:38:47;;;;;;;1999.90;999.90;;;;;;;7.09;55.96;95317.25;5115879;28;20062;-66
2023/11/18 08:41:16;;;;;;;1999.90;999.90;;;;;;;7.16;54.90;95310.88;5115943;28;20100;-64
2023/11/18 08:43:46;;;;;;;1999.90;999.90;;;;;;;7.33;54.44;95330.09;5115198;28;20056;-63
2023/11/18 08:46:14;;;;;;;;;;;;;;;7.28;54.91;95340.69;5116185;28;20519;-65
2023/11/18 08:48:44;;;;;;;1999.90;999.90;;;;;;;7.21;54.34;95347.09;5115896;28;19926;-61
2023/11/18 08:51:16;;;;;;;1999.90;999.90;;;;;;;7.20;53.68;95343.63;5115746;28;20082;-64
2023/11/18 08:53:45;;;;;;;1999.90;999.90;;;;;;;7.27;54.17;95341.63;5115446;28;20104;-65
2023/11/18 08:56:15;;;;;;;1999.90;999.90;;;;;;;7.37;54.17;95339.44;5115767;28;20048;-65
2023/11/18 08:58:45;;;;;;;1999.90;999.90;;;;;;;7.39;53.50;95344.59;5115448;28;20051;-62
2023/11/18 09:01:14;;;;;;;1999.90;999.90;;;;;;;7.26;53.82;95334.75;5115492;28;20050;-63
2023/11/18 09:03:48;;;;;;;1999.90;999.90;;;;;;;7.11;54.76;95341.47;5115513;28;20054;-64
2023/11/18 09:06:25;;;;;;;1999.90;999.90;;;;;;;6.89;53.86;95349.34;5115204;28;20075;-63
2023/11/18 09:08:54;;;;;;;1999.90;999.90;;;;;;;6.78;54.58;95350.63;5115325;28;20073;-64
2023/11/18 09:11:24;;;;;;;1999.90;999.90;;;;;;;6.56;55.00;95340.25;5115287;28;20053;-65
2023/11/18 09:14:00;;;;;;;;;;;;;;;6.42;55.88;95322.66;5115665;28;20086;-64
2023/11/18 09:16:29;;;;;;;1999.90;999.90;;;;;;;6.38;56.36;95334.09;5115115;28;19924;-64
2023/11/18 09:18:59;;;;;;;1999.90;999.90;;;;;;;6.23;55.94;95325.97;5115102;28;20056;-67
2023/11/18 09:21:29;;;;;;;1999.90;999.90;;;;;;;6.18;57.17;95318.38;5115148;28;20488;-62
2023/11/18 09:23:58;;;;;;;1999.90;999.90;;;;;;;6.15;56.61;95317.66;5115172;28;20481;-64
2023/11/18 09:26:29;;;;;;;1999.90;999.90;;;;;;;6.07;57.30;95325.75;5114994;28;20284;-65
2023/11/18 09:28:58;;;;;;;1999.90;999.90;;;;;;;6.09;56.75;95323.09;5114975;28;20065;-65
2023/11/18 09:31:27;;;;;;;1999.90;999.90;;;;;;;6.03;56.83;95321.56;5114819;28;20047;-67
2023/11/18 09:33:57;;;;;;;1999.90;999.90;;;;;;;6.03;56.05;95319.81;5114890;28;20044;-63
2023/11/18 09:36:28;;;;;;;1999.90;999.90;;;;;;;6.05;56.82;95306.81;5114752;28;20477;-65
2023/11/18 09:38:57;;;;;;;1999.90;999.90;;;;;;;6.11;56.73;95297.94;5114713;28;20048;-63
2023/11/18 09:41:26;;;;;;;1999.90;999.90;;;;;;;6.10;56.59;95304.00;5114714;28;20043;-63
2023/11/18 09:43:56;;;;;;;1999.90;999.90;;;;;;;6.22;56.27;95306.13;5114606;28;20047;-66
2023/11/18 09:46:26;;;;;;;1999.90;999.90;;;;;;;6.20;55.45;95302.72;5114732;28;20067;-67
2023/11/18 09:48:59;;;;;;;1999.90;999.90;;;;;;;6.29;55.25;95291.16;5114480;28;20079;-63
2023/11/18 09:51:30;;;;;;;1999.90;999.90;;;;;;;6.28;55.61;95298.09;5114447;28;20052;-67
2023/11/18 09:54:01;;;;;;;1999.90;999.90;;;;;;;6.43;54.87;95294.03;5114725;28;20465;-66
2023/11/18 09:56:37;;;;;;;1999.90;999.90;;;;;;;6.49;53.82;95292.06;5114446;28;20052;-64
2023/11/18 09:59:16;;;;;;;1999.90;999.90;;;;;;;6.49;53.39;95294.66;5114222;28;20051;-63
2023/11/18 10:01:53;;;;;;;1999.90;999.90;;;;;;;6.43;53.68;95296.63;5114333;28;20047;-62
2023/11/18 10:04:22;;;;;;;1999.90;999.90;;;;;;;6.36;54.28;95308.16;5113769;28;20098;-62
2023/11/18 10:06:54;;;;;;;1999.90;999.90;;;;;;;6.25;54.86;95274.84;5114016;28;20131;-64
2023/11/18 10:09:36;;;;;;;1999.90;999.90;;;;;;;6.26;54.13;95296.47;5114268;28;20047;-65
2023/11/18 10:12:06;;;;;;;1999.90;999.90;;;;;;;6.29;54.19;95273.81;5114350;28;20051;-64
2023/11/18 10:14:35;;;;;;;1999.90;999.90;;;;;;;6.15;54.29;95271.78;5114096;28;20054;-64
2023/11/18 10:17:08;;;;;;;1999.90;999.90;;;;;;;6.15;54.48;95282.16;5114102;28;20071;-64
2023/11/18 10:19:53;;;;;;;1999.90;999.90;;;;;;;6.18;55.54;95263.84;5113978;28;20054;-64
2023/11/18 10:22:27;;;;;;;1999.90;999.90;;;;;;;6.21;54.70;95260.31;5113894;28;20058;-65
2023/11/18 10:25:00;;;;;;;1999.90;999.90;;;;;;;6.22;54.10;95256.78;5113876;28;20108;-67
2023/11/18 10:27:29;;;;;;;1999.90;999.90;;;;;;;6.24;53.81;95249.78;5113876;28;20403;-64
2023/11/18 10:29:58;;;;;;;1999.90;999.90;;;;;;;6.24;55.13;95241.16;5113868;28;20480;-66
2023/11/18 10:32:27;;;;;;;1999.90;999.90;;;;;;;6.17;54.34;95233.59;5113821;28;20499;-65
2023/11/18 10:34:56;;;;;;;1999.90;999.90;;;;;;;6.11;54.19;95254.63;5113843;28;20051;-64
2023/11/18 10:37:24;;;;;;;1999.90;999.90;;;;;;;6.10;54.31;95252.09;5113698;28;20127;-64
2023/11/18 10:39:52;;;;;;;1999.90;999.90;;;;;;;6.12;54.10;95243.34;5113670;28;20074;-64
2023/11/18 10:42:22;;;;;;;1999.90;999.90;;;;;;;6.12;54.52;95256.31;5113620;28;20135;-63
2023/11/18 10:44:59;;;;;;;1999.90;999.90;;;;;;;6.10;54.35;95241.69;5113735;28;20051;-64
2023/11/18 10:47:27;;;;;;;1999.90;999.90;;;;;;;6.05;53.71;95237.53;5113595;28;20135;-64
2023/11/18 10:49:55;;;;;;;1999.90;999.90;;;;;;;6.01;53.77;95229.91;5113541;28;20499;-63
2023/11/18 10:52:25;;;;;;;1999.90;999.90;;;;;;;5.99;53.71;95248.13;5113642;28;20048;-67
2023/11/18 10:54:55;;;;;;;1999.90;999.90;;;;;;;5.97;54.28;95256.91;5113612;28;20128;-64
2023/11/18 10:57:25;;;;;;;1999.90;999.90;;;;;;;5.97;54.81;95246.53;5113468;28;20056;-63
2023/11/18 11:00:12;;;;;;;1999.90;999.90;;;;;;;5.92;54.20;95251.91;5113473;28;20070;-65
2023/11/18 11:02:41;;;;;;;1999.90;999.90;;;;;;;5.85;54.54;95256.50;5113565;28;20039;-64
2023/11/18 11:05:15;;;;;;;1999.90;999.90;;;;;;;5.82;54.40;95254.84;5113266;28;20044;-65
2023/11/18 11:07:45;;;;;;;1999.90;999.90;;;;;;;5.87;54.45;95246.06;5113440;28;20071;-63
2023/11/18 11:10:13;;;;;;;1999.90;999.90;;;;;;;5.87;54.49;95239.09;5113298;28;20047;-64
2023/11/18 11:12:53;;;;;;;1999.90;999.90;;;;;;;5.92;53.24;95246.72;5113554;28;20043;-64
2023/11/18 11:15:28;;;;;;;1999.90;999.90;;;;;;;5.89;53.70;95239.03;5113439;28;20043;-64
2023/11/18 11:18:02;;;;;;;1999.90;999.90;;;;;;;5.91;52.94;95242.44;5116233;28;20058;-63
2023/11/18 11:20:36;;;;;;;1999.90;999.90;;;;;;;5.84;54.39;95246.19;5117295;28;20123;-65
2023/11/18 11:23:14;;;;;;;1999.90;999.90;;;;;;;5.79;54.34;95267.97;5117420;28;20126;-63